Portada
METAR-TAF:

METAR-TAF

Aeroports :

Ayacucho, Perú

latitud: 13-08S, longitud: 074-13W, altitud: 2740 m

Observació

L'informe es va fer fa 55 minuts, a les 23:00 UTC
Vent 9 kt del Nord-Est, variant entre Nord/Nord-Est i Est/Sud-Est
Temperatura 19°C
Humitat 32%
Pressió 1028 hPa
Visibilitat 10 km o més
sense núvols per sota de 1500 mi sense presència de cumulonimbus.

METAR: SPHO 192300Z 05009KT 030V110 CAVOK 19/02 Q1028 RMK PP000

Hora: 18:55 (23:55 UTC)

Pronòstic

L'informe es va fer fa 6 hores i 55 minuts, a les 17:00 UTC
Pronòstic vàlid del 19 a les 18 UTC al 20 a les 18 UTC
Vent 3 kt amb direcció variable
Visibilitat 10 km o més
Escasses núvols a una alçada de 5000 ft

TAF: SPHO 191700Z 1918/2018 VRB03KT 9999 FEW050 TX25/1920Z TN09/2011Z

Observacions i pronòstics meteorològics de més de 4000 aeroports (METAR i TAF).

Les estacions disponibles són els punts grocs i vermells al mapa.

Posi el ratolí al punt desitjat per veure el nom de l'estació.

Feu clic per veure les observacions i els pronòstics meteorològics.

Per canviar el mapa: feu clic els botons verds amb una creu de color negre per apropar; al botó verd amb un guió per allunyar la imatge; o en les fletxes verdes per a mapes adjacents.


METAR-TAF: